Mc Call Municipal Airport
KMYL : now visible

Airfield :











YOU CAN JOIN US ON...

 
LOGIN :

Register | Disclaimer

   EN    FR    IT 

 









Legend :    VFR   Marginal VFR   IFR   Intensive IFR   Very Intensive IFR
Visi :
Ceiling :
>= 8 km
>= 3000ft
5 to 8 km
1000 to 3000 ft
1500m to 5 km
500 to 1000 ft
800 to 1500m
200 to 500 ft
< 800m
< 200 ft
Symbols :   Thunderstorms  Fog  Heavy snow  Heavy precipitations  Wind > 20 kt






- Airport Elevation : 5024 ft


KMYL - Mc Call Municipal

CURRENT METAR :
  • 291251Z AUTO 00000KT 10SM CLR 10/03 A3014 RMK AO2 SLP163 T01000028 $

EXPIRED METARs :
  • 291151Z AUTO 34003KT 10SM 11/02 A3013 RMK AO2 SLP158 T01110022 10189 20111 53006 $
  • 291051Z AUTO 36005KT 10SM CLR 14/01 A3012 RMK AO2 SLP149 T01390011

TAF KMYL
Valid from the 29 at 12:00 until the 30 at 12:00 UTC


291133Z 2912/3012 VRB06KT P6SM SKC
FM291800 22010KT P6SM SKC
FM300400 36005KT P6SM SKC
KZLC FIR / North America



MET'MAP, your aeronautical weather chart ! - Copyright ORBIFLY December 2007 - Disclaimer

ORBIFLY MET'MAP TEAM :

Programming & Development : Alexandra Zaïnal
Original concept : Baudouin d'Aumeries
Technical & hardware support : Manuel Goepfert
Assistance : Marc-Olivier Méhu




SOURCES & CREDITS :

   NOAA       Earth
Advisory